SBPL/PNZ METAR and TAF weather

Enter ICAO airport designator
Station Type Date Time Source
SBPL METAR 2019/04/19 11:00 UTC NOAA

SBPL 191100Z 15008KT 9999 FEW025 27/22 Q1015


Station Type Date Time Source
SBPL Decoded METAR 2019/04/19 11:00 UTC NOAA

Petrolina , Brazil (SBPL) 09-21S 040-33W
Apr 19, 2019 - 07:00 AM EDT / 2019.04.19 1100 UTC
Wind: from the SSE (150 degrees) at 9 MPH (8 KT):0
Visibility: greater than 7 mile(s):0
Sky conditions: mostly clear
Temperature: 80 F (27 C)
Dew Point: 71 F (22 C)
Relative Humidity: 74%
Pressure (altimeter): 29.97 in. Hg (1015 hPa)
ob: SBPL 191100Z 15008KT 9999 FEW025 27/22 Q1015
cycle: 11

Station Type Date Time Source
SBPL TAF 2019/04/19 12:57 UTC NOAA

TAF TAF SBPL 191000Z 1912/2012 13005KT CAVOK TX33/1917Z TN24/2008Z
BECMG 1914/1916 SCT035
BECMG 1921/1923 16005KT CAVOK
RMK PAZ

Example: see airport list